sensor_id;sensor_type;location;lat;lon;timestamp;pressure;altitude;pressure_sealevel;temperature;humidity
37694;BME280;23531;50.122;8.644;2023-05-09T00:01:28;100836.00;;;17.29;nan
37694;BME280;23531;50.122;8.644;2023-05-09T00:03:30;100837.06;;;17.28;nan
37694;BME280;23531;50.122;8.644;2023-05-09T00:05:33;100837.16;;;17.33;nan
37694;BME280;23531;50.122;8.644;2023-05-09T00:07:34;100829.50;;;17.30;nan
37694;BME280;23531;50.122;8.644;2023-05-09T00:09:36;100833.28;;;17.29;nan
37694;BME280;23531;50.122;8.644;2023-05-09T00:11:37;100836.00;;;17.29;nan
37694;BME280;23531;50.122;8.644;2023-05-09T00:13:38;100843.81;;;17.25;nan
37694;BME280;23531;50.122;8.644;2023-05-09T00:15:40;100841.59;;;17.22;nan
37694;BME280;23531;50.122;8.644;2023-05-09T00:17:43;100837.47;;;17.20;nan
37694;BME280;23531;50.122;8.644;2023-05-09T00:19:44;100824.03;;;17.13;nan
37694;BME280;23531;50.122;8.644;2023-05-09T00:21:48;100822.13;;;17.14;nan
37694;BME280;23531;50.122;8.644;2023-05-09T00:23:49;100823.09;;;17.08;nan
37694;BME280;23531;50.122;8.644;2023-05-09T00:25:50;100820.44;;;16.96;nan
37694;BME280;23531;50.122;8.644;2023-05-09T00:27:52;100822.88;;;16.81;nan
37694;BME280;23531;50.122;8.644;2023-05-09T00:29:53;100822.97;;;16.74;nan
37694;BME280;23531;50.122;8.644;2023-05-09T00:31:55;100812.81;;;16.81;nan
37694;BME280;23531;50.122;8.644;2023-05-09T00:33:56;100813.31;;;16.78;nan
37694;BME280;23531;50.122;8.644;2023-05-09T00:35:57;100811.84;;;16.87;nan
37694;BME280;23531;50.122;8.644;2023-05-09T00:38:00;100804.28;;;16.89;nan
37694;BME280;23531;50.122;8.644;2023-05-09T00:40:01;100805.69;;;16.92;nan
37694;BME280;23531;50.122;8.644;2023-05-09T00:42:03;100802.16;;;16.91;nan
37694;BME280;23531;50.122;8.644;2023-05-09T00:44:04;100795.06;;;16.90;nan
37694;BME280;23531;50.122;8.644;2023-05-09T00:46:05;100794.31;;;16.95;nan
37694;BME280;23531;50.122;8.644;2023-05-09T00:48:07;100788.00;;;16.89;nan
37694;BME280;23531;50.122;8.644;2023-05-09T00:50:08;100800.75;;;16.89;nan
37694;BME280;23531;50.122;8.644;2023-05-09T00:52:10;100791.34;;;16.80;nan
37694;BME280;23531;50.122;8.644;2023-05-09T00:54:12;100787.06;;;16.84;nan
37694;BME280;23531;50.122;8.644;2023-05-09T00:56:14;100785.78;;;16.75;nan
37694;BME280;23531;50.122;8.644;2023-05-09T00:58:15;100788.16;;;16.71;nan
37694;BME280;23531;50.122;8.644;2023-05-09T01:00:18;100787.78;;;16.79;nan
37694;BME280;23531;50.122;8.644;2023-05-09T01:02:19;100786.94;;;16.90;nan
37694;BME280;23531;50.122;8.644;2023-05-09T01:04:21;100788.41;;;16.98;nan
37694;BME280;23531;50.122;8.644;2023-05-09T01:06:23;100782.75;;;16.99;nan
37694;BME280;23531;50.122;8.644;2023-05-09T01:10:50;100780.22;;;17.10;nan
37694;BME280;23531;50.122;8.644;2023-05-09T01:12:57;100776.19;;;17.12;nan
37694;BME280;23531;50.122;8.644;2023-05-09T01:15:05;100779.56;;;17.02;nan
37694;BME280;23531;50.122;8.644;2023-05-09T01:17:09;100778.63;;;16.97;nan
37694;BME280;23531;50.122;8.644;2023-05-09T01:19:17;100783.41;;;17.06;nan
37694;BME280;23531;50.122;8.644;2023-05-09T01:21:25;100779.63;;;17.08;nan
37694;BME280;23531;50.122;8.644;2023-05-09T01:26:04;100765.91;;;17.14;nan
37694;BME280;23531;50.122;8.644;2023-05-09T01:28:12;100764.00;;;17.15;nan
37694;BME280;23531;50.122;8.644;2023-05-09T01:30:15;100763.66;;;17.11;nan
37694;BME280;23531;50.122;8.644;2023-05-09T01:32:19;100761.19;;;17.10;nan
37694;BME280;23531;50.122;8.644;2023-05-09T01:34:23;100764.63;;;17.05;nan
37694;BME280;23531;50.122;8.644;2023-05-09T01:36:26;100763.91;;;17.10;nan
37694;BME280;23531;50.122;8.644;2023-05-09T01:38:30;100768.88;;;17.13;nan
37694;BME280;23531;50.122;8.644;2023-05-09T01:40:32;100757.72;;;16.97;nan
37694;BME280;23531;50.122;8.644;2023-05-09T01:42:35;100759.84;;;16.95;nan
37694;BME280;23531;50.122;8.644;2023-05-09T01:44:38;100753.50;;;16.90;nan
37694;BME280;23531;50.122;8.644;2023-05-09T01:46:42;100758.50;;;16.81;nan
37694;BME280;23531;50.122;8.644;2023-05-09T01:48:43;100749.31;;;16.70;nan
37694;BME280;23531;50.122;8.644;2023-05-09T01:50:45;100740.47;;;16.75;nan
37694;BME280;23531;50.122;8.644;2023-05-09T01:52:48;100739.28;;;16.71;nan
37694;BME280;23531;50.122;8.644;2023-05-09T01:54:50;100744.16;;;16.69;nan
37694;BME280;23531;50.122;8.644;2023-05-09T01:56:51;100738.47;;;16.70;nan
37694;BME280;23531;50.122;8.644;2023-05-09T01:58:54;100744.28;;;16.62;nan
37694;BME280;23531;50.122;8.644;2023-05-09T02:00:56;100735.66;;;16.54;nan
37694;BME280;23531;50.122;8.644;2023-05-09T02:02:59;100743.69;;;16.49;nan
37694;BME280;23531;50.122;8.644;2023-05-09T02:05:01;100734.88;;;16.42;nan
37694;BME280;23531;50.122;8.644;2023-05-09T02:07:03;100724.97;;;16.47;nan
37694;BME280;23531;50.122;8.644;2023-05-09T02:09:04;100731.00;;;16.38;nan
37694;BME280;23531;50.122;8.644;2023-05-09T02:11:06;100729.94;;;16.39;nan
37694;BME280;23531;50.122;8.644;2023-05-09T02:13:07;100725.09;;;16.41;nan
37694;BME280;23531;50.122;8.644;2023-05-09T02:15:09;100729.81;;;16.45;nan
37694;BME280;23531;50.122;8.644;2023-05-09T02:17:10;100731.22;;;16.48;nan
37694;BME280;23531;50.122;8.644;2023-05-09T02:19:17;100726.81;;;16.58;nan
37694;BME280;23531;50.122;8.644;2023-05-09T02:21:18;100727.63;;;16.59;nan
37694;BME280;23531;50.122;8.644;2023-05-09T02:23:19;100731.31;;;16.53;nan
37694;BME280;23531;50.122;8.644;2023-05-09T02:25:21;100729.88;;;16.50;nan
37694;BME280;23531;50.122;8.644;2023-05-09T02:27:22;100735.78;;;16.59;nan
37694;BME280;23531;50.122;8.644;2023-05-09T02:29:25;100735.41;;;16.67;nan
37694;BME280;23531;50.122;8.644;2023-05-09T02:31:28;100739.03;;;16.73;nan
37694;BME280;23531;50.122;8.644;2023-05-09T02:33:30;100735.13;;;16.80;nan
37694;BME280;23531;50.122;8.644;2023-05-09T02:35:34;100727.88;;;16.86;nan
37694;BME280;23531;50.122;8.644;2023-05-09T02:37:36;100724.94;;;16.87;nan
37694;BME280;23531;50.122;8.644;2023-05-09T02:39:38;100724.75;;;16.77;nan
37694;BME280;23531;50.122;8.644;2023-05-09T02:41:39;100724.75;;;16.77;nan
37694;BME280;23531;50.122;8.644;2023-05-09T02:43:40;100720.84;;;16.73;nan
37694;BME280;23531;50.122;8.644;2023-05-09T02:45:42;100724.88;;;16.70;nan
37694;BME280;23531;50.122;8.644;2023-05-09T02:47:43;100718.41;;;16.60;nan
37694;BME280;23531;50.122;8.644;2023-05-09T02:49:44;100707.97;;;16.40;nan
37694;BME280;23531;50.122;8.644;2023-05-09T02:51:47;100715.69;;;16.31;nan
37694;BME280;23531;50.122;8.644;2023-05-09T02:53:48;100711.47;;;16.24;nan
37694;BME280;23531;50.122;8.644;2023-05-09T02:55:49;100712.38;;;16.29;nan
37694;BME280;23531;50.122;8.644;2023-05-09T02:57:50;100705.53;;;16.27;nan
37694;BME280;23531;50.122;8.644;2023-05-09T02:59:51;100709.47;;;16.19;nan
37694;BME280;23531;50.122;8.644;2023-05-09T03:01:53;100704.63;;;16.21;nan
37694;BME280;23531;50.122;8.644;2023-05-09T03:03:54;100708.03;;;16.17;nan
37694;BME280;23531;50.122;8.644;2023-05-09T03:05:55;100708.88;;;16.17;nan
37694;BME280;23531;50.122;8.644;2023-05-09T03:07:58;100714.84;;;16.31;nan
37694;BME280;23531;50.122;8.644;2023-05-09T03:09:59;100716.47;;;16.44;nan
37694;BME280;23531;50.122;8.644;2023-05-09T03:12:00;100711.94;;;16.49;nan
37694;BME280;23531;50.122;8.644;2023-05-09T03:14:02;100714.78;;;16.54;nan
37694;BME280;23531;50.122;8.644;2023-05-09T03:16:04;100714.06;;;16.59;nan
37694;BME280;23531;50.122;8.644;2023-05-09T03:18:05;100710.53;;;16.58;nan
37694;BME280;23531;50.122;8.644;2023-05-09T03:20:07;100706.16;;;16.57;nan
37694;BME280;23531;50.122;8.644;2023-05-09T03:22:09;100700.97;;;16.56;nan
37694;BME280;23531;50.122;8.644;2023-05-09T03:24:11;100697.66;;;16.54;nan
37694;BME280;23531;50.122;8.644;2023-05-09T03:26:13;100694.13;;;16.53;nan
37694;BME280;23531;50.122;8.644;2023-05-09T03:28:14;100695.94;;;16.48;nan
37694;BME280;23531;50.122;8.644;2023-05-09T03:30:15;100694.84;;;16.49;nan
37694;BME280;23531;50.122;8.644;2023-05-09T03:32:16;100690.03;;;16.39;nan
37694;BME280;23531;50.122;8.644;2023-05-09T03:34:18;100694.66;;;16.39;nan
37694;BME280;23531;50.122;8.644;2023-05-09T03:36:19;100696.31;;;16.40;nan
37694;BME280;23531;50.122;8.644;2023-05-09T03:38:20;100690.41;;;16.43;nan
37694;BME280;23531;50.122;8.644;2023-05-09T03:40:24;100688.28;;;16.45;nan
37694;BME280;23531;50.122;8.644;2023-05-09T03:42:25;100683.97;;;16.49;nan
37694;BME280;23531;50.122;8.644;2023-05-09T03:44:27;100679.16;;;16.51;nan
37694;BME280;23531;50.122;8.644;2023-05-09T03:46:28;100684.81;;;16.49;nan
37694;BME280;23531;50.122;8.644;2023-05-09T03:48:29;100692.31;;;16.30;nan
37694;BME280;23531;50.122;8.644;2023-05-09T03:50:30;100681.94;;;16.27;nan
37694;BME280;23531;50.122;8.644;2023-05-09T03:52:32;100685.75;;;16.15;nan
37694;BME280;23531;50.122;8.644;2023-05-09T03:54:33;100681.91;;;16.11;nan
37694;BME280;23531;50.122;8.644;2023-05-09T03:56:36;100682.00;;;16.04;nan
37694;BME280;23531;50.122;8.644;2023-05-09T03:58:37;100667.53;;;15.98;nan
37694;BME280;23531;50.122;8.644;2023-05-09T04:00:39;100678.75;;;15.90;nan
37694;BME280;23531;50.122;8.644;2023-05-09T04:02:40;100671.09;;;15.87;nan
37694;BME280;23531;50.122;8.644;2023-05-09T04:04:41;100675.09;;;15.85;nan
37694;BME280;23531;50.122;8.644;2023-05-09T04:06:43;100673.06;;;15.92;nan
37694;BME280;23531;50.122;8.644;2023-05-09T04:08:44;100669.19;;;16.00;nan
37694;BME280;23531;50.122;8.644;2023-05-09T04:10:46;100666.94;;;15.96;nan
37694;BME280;23531;50.122;8.644;2023-05-09T04:12:48;100673.44;;;15.95;nan
37694;BME280;23531;50.122;8.644;2023-05-09T04:14:49;100666.31;;;16.06;nan
37694;BME280;23531;50.122;8.644;2023-05-09T04:16:51;100673.72;;;16.22;nan
37694;BME280;23531;50.122;8.644;2023-05-09T04:18:52;100677.53;;;16.38;nan
37694;BME280;23531;50.122;8.644;2023-05-09T04:20:54;100671.97;;;16.45;nan
37694;BME280;23531;50.122;8.644;2023-05-09T04:22:55;100679.16;;;16.51;nan
37694;BME280;23531;50.122;8.644;2023-05-09T04:24:57;100671.00;;;16.51;nan
37694;BME280;23531;50.122;8.644;2023-05-09T04:26:59;100669.84;;;16.47;nan
37694;BME280;23531;50.122;8.644;2023-05-09T04:29:02;100676.44;;;16.51;nan
37694;BME280;23531;50.122;8.644;2023-05-09T04:31:03;100679.66;;;16.48;nan
37694;BME280;23531;50.122;8.644;2023-05-09T04:33:05;100671.09;;;16.56;nan
37694;BME280;23531;50.122;8.644;2023-05-09T04:35:06;100680.41;;;16.60;nan
37694;BME280;23531;50.122;8.644;2023-05-09T04:37:08;100676.63;;;16.61;nan
37694;BME280;23531;50.122;8.644;2023-05-09T04:39:10;100678.78;;;16.59;nan
37694;BME280;23531;50.122;8.644;2023-05-09T04:41:11;100667.91;;;16.59;nan
37694;BME280;23531;50.122;8.644;2023-05-09T04:43:13;100669.69;;;16.65;nan
37694;BME280;23531;50.122;8.644;2023-05-09T04:45:16;100673.41;;;16.76;nan
37694;BME280;23531;50.122;8.644;2023-05-09T04:47:17;100660.06;;;16.74;nan
37694;BME280;23531;50.122;8.644;2023-05-09T04:49:18;100664.59;;;16.68;nan
37694;BME280;23531;50.122;8.644;2023-05-09T04:51:19;100658.81;;;16.65;nan
37694;BME280;23531;50.122;8.644;2023-05-09T04:53:21;100650.28;;;16.61;nan
37694;BME280;23531;50.122;8.644;2023-05-09T04:55:22;100653.00;;;16.61;nan
37694;BME280;23531;50.122;8.644;2023-05-09T04:57:23;100651.63;;;16.59;nan
37694;BME280;23531;50.122;8.644;2023-05-09T04:59:24;100656.69;;;16.67;nan
37694;BME280;23531;50.122;8.644;2023-05-09T05:01:27;100640.69;;;16.70;nan
37694;BME280;23531;50.122;8.644;2023-05-09T05:03:28;100648.22;;;16.80;nan
37694;BME280;23531;50.122;8.644;2023-05-09T05:05:29;100645.41;;;16.75;nan
37694;BME280;23531;50.122;8.644;2023-05-09T05:07:31;100641.63;;;16.76;nan
37694;BME280;23531;50.122;8.644;2023-05-09T05:09:32;100642.88;;;16.85;nan
37694;BME280;23531;50.122;8.644;2023-05-09T05:11:33;100641.47;;;16.83;nan
37694;BME280;23531;50.122;8.644;2023-05-09T05:13:34;100637.19;;;16.87;nan
37694;BME280;23531;50.122;8.644;2023-05-09T05:15:35;100635.31;;;16.87;nan
37694;BME280;23531;50.122;8.644;2023-05-09T05:17:38;100634.13;;;16.83;nan
37694;BME280;23531;50.122;8.644;2023-05-09T05:19:39;100634.66;;;16.80;nan
37694;BME280;23531;50.122;8.644;2023-05-09T05:21:40;100639.50;;;16.78;nan
37694;BME280;23531;50.122;8.644;2023-05-09T05:23:42;100634.06;;;16.78;nan
37694;BME280;23531;50.122;8.644;2023-05-09T05:25:43;100629.13;;;16.75;nan
37694;BME280;23531;50.122;8.644;2023-05-09T05:27:44;100632.66;;;16.76;nan
37694;BME280;23531;50.122;8.644;2023-05-09T05:29:46;100629.28;;;16.68;nan
37694;BME280;23531;50.122;8.644;2023-05-09T05:31:47;100636.19;;;16.76;nan
37694;BME280;23531;50.122;8.644;2023-05-09T05:33:49;100641.41;;;16.78;nan
37694;BME280;23531;50.122;8.644;2023-05-09T05:35:51;100644.03;;;16.89;nan
37694;BME280;23531;50.122;8.644;2023-05-09T05:37:52;100636.38;;;16.86;nan
37694;BME280;23531;50.122;8.644;2023-05-09T05:39:53;100631.41;;;16.83;nan
37694;BME280;23531;50.122;8.644;2023-05-09T05:41:54;100628.31;;;16.91;nan
37694;BME280;23531;50.122;8.644;2023-05-09T05:43:56;100626.84;;;17.00;nan
37694;BME280;23531;50.122;8.644;2023-05-09T05:45:57;100627.97;;;17.04;nan
37694;BME280;23531;50.122;8.644;2023-05-09T05:47:58;100622.53;;;17.04;nan
37694;BME280;23531;50.122;8.644;2023-05-09T05:50:03;100627.72;;;17.06;nan
37694;BME280;23531;50.122;8.644;2023-05-09T05:52:07;100624.94;;;17.01;nan
37694;BME280;23531;50.122;8.644;2023-05-09T05:54:08;100619.50;;;17.01;nan
37694;BME280;23531;50.122;8.644;2023-05-09T05:56:10;100626.50;;;17.14;nan
37694;BME280;23531;50.122;8.644;2023-05-09T05:58:11;100626.66;;;17.24;nan
37694;BME280;23531;50.122;8.644;2023-05-09T06:00:12;100626.81;;;17.17;nan
37694;BME280;23531;50.122;8.644;2023-05-09T06:02:14;100621.13;;;17.19;nan
37694;BME280;23531;50.122;8.644;2023-05-09T06:04:15;100622.88;;;17.25;nan
37694;BME280;23531;50.122;8.644;2023-05-09T06:06:18;100621.69;;;17.37;nan
37694;BME280;23531;50.122;8.644;2023-05-09T06:08:19;100620.78;;;17.49;nan
37694;BME280;23531;50.122;8.644;2023-05-09T06:10:20;100620.94;;;17.42;nan
37694;BME280;23531;50.122;8.644;2023-05-09T06:12:22;100621.97;;;17.58;nan
37694;BME280;23531;50.122;8.644;2023-05-09T06:14:23;100608.31;;;17.69;nan
37694;BME280;23531;50.122;8.644;2023-05-09T06:16:24;100614.72;;;17.63;nan
37694;BME280;23531;50.122;8.644;2023-05-09T06:18:25;100612.59;;;17.65;nan
37694;BME280;23531;50.122;8.644;2023-05-09T06:20:26;100614.00;;;17.51;nan
37694;BME280;23531;50.122;8.644;2023-05-09T06:22:29;100615.72;;;17.57;nan
37694;BME280;23531;50.122;8.644;2023-05-09T06:24:30;100607.81;;;17.56;nan
37694;BME280;23531;50.122;8.644;2023-05-09T06:26:31;100604.84;;;17.57;nan
37694;BME280;23531;50.122;8.644;2023-05-09T06:28:33;100608.88;;;17.55;nan
37694;BME280;23531;50.122;8.644;2023-05-09T06:30:34;100609.88;;;17.65;nan
37694;BME280;23531;50.122;8.644;2023-05-09T06:32:35;100602.91;;;17.74;nan
37694;BME280;23531;50.122;8.644;2023-05-09T06:34:36;100597.56;;;17.80;nan
37694;BME280;23531;50.122;8.644;2023-05-09T06:36:37;100599.81;;;17.88;nan
37694;BME280;23531;50.122;8.644;2023-05-09T06:38:40;100592.28;;;17.95;nan
37694;BME280;23531;50.122;8.644;2023-05-09T06:40:41;100586.28;;;17.93;nan
37694;BME280;23531;50.122;8.644;2023-05-09T06:42:43;100584.94;;;17.95;nan
37694;BME280;23531;50.122;8.644;2023-05-09T06:44:44;100584.63;;;17.92;nan
37694;BME280;23531;50.122;8.644;2023-05-09T06:46:45;100581.34;;;17.90;nan
37694;BME280;23531;50.122;8.644;2023-05-09T06:48:46;100569.97;;;17.93;nan
37694;BME280;23531;50.122;8.644;2023-05-09T06:50:48;100572.16;;;17.96;nan
37694;BME280;23531;50.122;8.644;2023-05-09T06:52:49;100576.03;;;18.00;nan
37694;BME280;23531;50.122;8.644;2023-05-09T06:54:52;100577.16;;;18.04;nan
37694;BME280;23531;50.122;8.644;2023-05-09T06:56:53;100576.91;;;18.05;nan
37694;BME280;23531;50.122;8.644;2023-05-09T06:58:54;100572.47;;;17.99;nan
37694;BME280;23531;50.122;8.644;2023-05-09T07:00:55;100571.63;;;17.94;nan
37694;BME280;23531;50.122;8.644;2023-05-09T07:02:57;100574.88;;;17.96;nan
37694;BME280;23531;50.122;8.644;2023-05-09T07:04:58;100566.53;;;18.02;nan
37694;BME280;23531;50.122;8.644;2023-05-09T07:06:59;100572.53;;;18.04;nan
37694;BME280;23531;50.122;8.644;2023-05-09T07:09:00;100561.50;;;18.16;nan
37694;BME280;23531;50.122;8.644;2023-05-09T07:11:04;100570.28;;;18.23;nan
37694;BME280;23531;50.122;8.644;2023-05-09T07:13:05;100566.91;;;18.38;nan
37694;BME280;23531;50.122;8.644;2023-05-09T07:15:07;100561.81;;;18.51;nan
37694;BME280;23531;50.122;8.644;2023-05-09T07:17:08;100563.13;;;18.71;nan
37694;BME280;23531;50.122;8.644;2023-05-09T07:19:09;100553.22;;;18.97;nan
37694;BME280;23531;50.122;8.644;2023-05-09T07:21:11;100547.59;;;19.50;nan
37694;BME280;23531;50.122;8.644;2023-05-09T07:23:12;100533.56;;;19.99;nan
37694;BME280;23531;50.122;8.644;2023-05-09T07:25:13;100527.06;;;20.25;nan
37694;BME280;23531;50.122;8.644;2023-05-09T07:27:16;100529.28;;;20.49;nan
37694;BME280;23531;50.122;8.644;2023-05-09T07:29:17;100536.63;;;20.89;nan
37694;BME280;23531;50.122;8.644;2023-05-09T07:31:19;100522.97;;;20.94;nan
37694;BME280;23531;50.122;8.644;2023-05-09T07:33:20;100529.03;;;20.76;nan
37694;BME280;23531;50.122;8.644;2023-05-09T07:35:21;100525.19;;;20.36;nan
37694;BME280;23531;50.122;8.644;2023-05-09T07:37:23;100526.25;;;20.25;nan
37694;BME280;23531;50.122;8.644;2023-05-09T07:39:24;100525.94;;;20.06;nan
37694;BME280;23531;50.122;8.644;2023-05-09T07:41:25;100522.09;;;19.92;nan
37694;BME280;23531;50.122;8.644;2023-05-09T07:43:28;100520.69;;;19.79;nan
37694;BME280;23531;50.122;8.644;2023-05-09T07:45:29;100518.75;;;19.70;nan
37694;BME280;23531;50.122;8.644;2023-05-09T07:47:30;100510.22;;;19.56;nan
37694;BME280;23531;50.122;8.644;2023-05-09T07:49:31;100504.50;;;19.52;nan
37694;BME280;23531;50.122;8.644;2023-05-09T07:51:33;100505.25;;;19.43;nan
37694;BME280;23531;50.122;8.644;2023-05-09T07:53:34;100501.38;;;19.29;nan
37694;BME280;23531;50.122;8.644;2023-05-09T07:55:35;100508.34;;;19.09;nan
37694;BME280;23531;50.122;8.644;2023-05-09T07:57:36;100505.09;;;19.12;nan
37694;BME280;23531;50.122;8.644;2023-05-09T07:59:40;100504.31;;;19.17;nan
37694;BME280;23531;50.122;8.644;2023-05-09T08:01:41;100496.34;;;19.05;nan
37694;BME280;23531;50.122;8.644;2023-05-09T08:03:42;100499.63;;;19.07;nan
37694;BME280;23531;50.122;8.644;2023-05-09T08:05:43;100506.69;;;19.03;nan
37694;BME280;23531;50.122;8.644;2023-05-09T08:07:45;100499.28;;;18.99;nan
37694;BME280;23531;50.122;8.644;2023-05-09T08:09:46;100497.31;;;18.84;nan
37694;BME280;23531;50.122;8.644;2023-05-09T08:11:47;100498.59;;;18.76;nan
37694;BME280;23531;50.122;8.644;2023-05-09T08:13:48;100495.50;;;18.63;nan
37694;BME280;23531;50.122;8.644;2023-05-09T08:15:51;100496.31;;;18.58;nan
37694;BME280;23531;50.122;8.644;2023-05-09T08:17:52;100492.97;;;18.56;nan
37694;BME280;23531;50.122;8.644;2023-05-09T08:19:53;100490.06;;;18.63;nan
37694;BME280;23531;50.122;8.644;2023-05-09T08:21:55;100483.00;;;18.67;nan
37694;BME280;23531;50.122;8.644;2023-05-09T08:23:56;100482.00;;;18.73;nan
37694;BME280;23531;50.122;8.644;2023-05-09T08:25:57;100472.50;;;18.80;nan
37694;BME280;23531;50.122;8.644;2023-05-09T08:27:58;100480.97;;;18.84;nan
37694;BME280;23531;50.122;8.644;2023-05-09T08:30:00;100475.53;;;18.84;nan
37694;BME280;23531;50.122;8.644;2023-05-09T08:32:02;100479.84;;;18.80;nan
37694;BME280;23531;50.122;8.644;2023-05-09T08:34:04;100471.59;;;18.70;nan
37694;BME280;23531;50.122;8.644;2023-05-09T08:36:05;100465.06;;;18.71;nan
37694;BME280;23531;50.122;8.644;2023-05-09T08:38:06;100470.84;;;18.79;nan
37694;BME280;23531;50.122;8.644;2023-05-09T08:40:08;100458.06;;;18.85;nan
37694;BME280;23531;50.122;8.644;2023-05-09T08:42:09;100459.88;;;18.69;nan
37694;BME280;23531;50.122;8.644;2023-05-09T08:44:10;100461.84;;;18.79;nan
37694;BME280;23531;50.122;8.644;2023-05-09T08:46:12;100452.97;;;18.94;nan
37694;BME280;23531;50.122;8.644;2023-05-09T08:48:17;100453.22;;;18.92;nan
37694;BME280;23531;50.122;8.644;2023-05-09T08:50:18;100448.84;;;18.91;nan
37694;BME280;23531;50.122;8.644;2023-05-09T08:52:20;100447.16;;;18.85;nan
37694;BME280;23531;50.122;8.644;2023-05-09T08:54:21;100440.41;;;18.98;nan
37694;BME280;23531;50.122;8.644;2023-05-09T08:56:23;100445.06;;;18.97;nan
37694;BME280;23531;50.122;8.644;2023-05-09T08:58:25;100443.44;;;19.01;nan
37694;BME280;23531;50.122;8.644;2023-05-09T09:00:26;100448.06;;;18.96;nan
37694;BME280;23531;50.122;8.644;2023-05-09T09:02:28;100443.72;;;19.00;nan
37694;BME280;23531;50.122;8.644;2023-05-09T09:04:30;100443.44;;;19.01;nan
37694;BME280;23531;50.122;8.644;2023-05-09T09:06:32;100448.13;;;19.06;nan
37694;BME280;23531;50.122;8.644;2023-05-09T09:08:33;100444.00;;;19.08;nan
37694;BME280;23531;50.122;8.644;2023-05-09T09:10:35;100436.94;;;19.07;nan
37694;BME280;23531;50.122;8.644;2023-05-09T09:12:39;100435.00;;;19.03;nan
37694;BME280;23531;50.122;8.644;2023-05-09T09:14:41;100424.66;;;19.05;nan
37694;BME280;23531;50.122;8.644;2023-05-09T09:16:46;100422.50;;;19.07;nan
37694;BME280;23531;50.122;8.644;2023-05-09T09:18:47;100427.66;;;19.03;nan
37694;BME280;23531;50.122;8.644;2023-05-09T09:20:55;100427.97;;;19.12;nan
37694;BME280;23531;50.122;8.644;2023-05-09T09:22:58;100429.03;;;19.11;nan
37694;BME280;23531;50.122;8.644;2023-05-09T09:25:00;100422.72;;;19.00;nan
37694;BME280;23531;50.122;8.644;2023-05-09T09:27:03;100424.38;;;19.01;nan
37694;BME280;23531;50.122;8.644;2023-05-09T09:29:05;100420.00;;;18.95;nan
37694;BME280;23531;50.122;8.644;2023-05-09T09:31:19;100415.63;;;18.99;nan
37694;BME280;23531;50.122;8.644;2023-05-09T09:33:20;100407.78;;;19.13;nan
37694;BME280;23531;50.122;8.644;2023-05-09T09:35:22;100406.16;;;19.12;nan
37694;BME280;23531;50.122;8.644;2023-05-09T09:37:25;100405.38;;;19.16;nan
37694;BME280;23531;50.122;8.644;2023-05-09T09:39:26;100404.28;;;19.22;nan
37694;BME280;23531;50.122;8.644;2023-05-09T09:41:30;100396.97;;;19.28;nan
37694;BME280;23531;50.122;8.644;2023-05-09T09:43:32;100408.97;;;19.37;nan
37694;BME280;23531;50.122;8.644;2023-05-09T09:45:35;100402.44;;;19.38;nan
37694;BME280;23531;50.122;8.644;2023-05-09T09:47:37;100399.72;;;19.43;nan
37694;BME280;23531;50.122;8.644;2023-05-09T09:49:38;100393.44;;;19.38;nan
37694;BME280;23531;50.122;8.644;2023-05-09T09:51:48;100387.44;;;19.36;nan
37694;BME280;23531;50.122;8.644;2023-05-09T09:53:51;100380.34;;;19.35;nan
37694;BME280;23531;50.122;8.644;2023-05-09T09:55:52;100382.78;;;19.26;nan
37694;BME280;23531;50.122;8.644;2023-05-09T09:57:53;100369.66;;;19.18;nan
37694;BME280;23531;50.122;8.644;2023-05-09T09:59:57;100369.31;;;18.99;nan
37694;BME280;23531;50.122;8.644;2023-05-09T10:01:58;100378.59;;;19.03;nan
37694;BME280;23531;50.122;8.644;2023-05-09T10:04:01;100364.47;;;19.11;nan
37694;BME280;23531;50.122;8.644;2023-05-09T10:06:02;100374.56;;;19.16;nan
37694;BME280;23531;50.122;8.644;2023-05-09T10:08:04;100365.03;;;19.18;nan
37694;BME280;23531;50.122;8.644;2023-05-09T10:10:08;100355.22;;;19.22;nan
37694;BME280;23531;50.122;8.644;2023-05-09T10:12:09;100366.72;;;19.30;nan
37694;BME280;23531;50.122;8.644;2023-05-09T10:14:13;100365.06;;;19.29;nan
37694;BME280;23531;50.122;8.644;2023-05-09T10:16:15;100354.16;;;19.29;nan
37694;BME280;23531;50.122;8.644;2023-05-09T10:18:16;100350.84;;;19.21;nan
37694;BME280;23531;50.122;8.644;2023-05-09T10:20:18;100350.31;;;19.25;nan
37694;BME280;23531;50.122;8.644;2023-05-09T10:22:20;100340.81;;;19.37;nan
37694;BME280;23531;50.122;8.644;2023-05-09T10:24:25;100348.16;;;19.37;nan
37694;BME280;23531;50.122;8.644;2023-05-09T10:26:29;100343.25;;;19.34;nan
37694;BME280;23531;50.122;8.644;2023-05-09T10:28:33;100340.81;;;19.37;nan
37694;BME280;23531;50.122;8.644;2023-05-09T10:30:36;100337.25;;;19.42;nan
37694;BME280;23531;50.122;8.644;2023-05-09T10:32:42;100330.19;;;19.46;nan
37694;BME280;23531;50.122;8.644;2023-05-09T10:34:47;100327.47;;;19.46;nan
37694;BME280;23531;50.122;8.644;2023-05-09T10:36:49;100334.53;;;19.42;nan
37694;BME280;23531;50.122;8.644;2023-05-09T10:38:50;100327.72;;;19.39;nan
37694;BME280;23531;50.122;8.644;2023-05-09T10:40:53;100316.53;;;19.36;nan
37694;BME280;23531;50.122;8.644;2023-05-09T10:42:56;100318.16;;;19.42;nan
37694;BME280;23531;50.122;8.644;2023-05-09T10:44:58;100316.56;;;19.46;nan
37694;BME280;23531;50.122;8.644;2023-05-09T10:46:59;100308.38;;;19.41;nan
37694;BME280;23531;50.122;8.644;2023-05-09T10:49:01;100305.34;;;19.32;nan
37694;BME280;23531;50.122;8.644;2023-05-09T10:51:03;100298.00;;;19.38;nan
37694;BME280;23531;50.122;8.644;2023-05-09T10:53:05;100299.16;;;19.52;nan
37694;BME280;23531;50.122;8.644;2023-05-09T10:55:07;100295.88;;;19.70;nan
37694;BME280;23531;50.122;8.644;2023-05-09T10:57:09;100294.50;;;19.83;nan
37694;BME280;23531;50.122;8.644;2023-05-09T11:01:28;100290.13;;;19.97;nan